Time;durP1;ratioP1;P1;durP2;ratioP2;P2;SDS_P1;SDS_P2;PMS_P1;PMS_P2;Temp;Humidity;BMP_temperature;BMP_pressure;BME280_temperature;BME280_humidity;BME280_pressure;Samples;Min_cycle;Max_cycle;Signal;HPM_P1;HPM_P2
2023/03/08 00:00:44;;;;;;;5.33;4.27;;;0.50;99.90;;;;;;4880081;29;20466;-73
2023/03/08 00:03:14;;;;;;;5.90;4.37;;;0.50;99.90;;;;;;4881162;29;20518;-73
2023/03/08 00:05:43;;;;;;;6.60;4.53;;;0.50;99.90;;;;;;4880269;29;20448;-74
2023/03/08 00:08:11;;;;;;;6.00;4.40;;;0.50;99.90;;;;;;4881098;29;20435;-73
2023/03/08 00:10:40;;;;;;;7.83;5.00;;;0.40;99.90;;;;;;4879905;29;20490;-73
2023/03/08 00:13:08;;;;;;;7.33;5.20;;;0.40;99.90;;;;;;4880966;29;20458;-73
2023/03/08 00:15:37;;;;;;;6.07;4.57;;;0.40;99.90;;;;;;4879879;29;20861;-74
2023/03/08 00:18:05;;;;;;;6.87;4.90;;;0.40;99.90;;;;;;4880924;29;20531;-73
2023/03/08 00:20:34;;;;;;;6.10;4.37;;;0.40;99.90;;;;;;4881444;29;20457;-74
2023/03/08 00:23:03;;;;;;;7.87;4.73;;;0.40;99.90;;;;;;4880800;29;20475;-74
2023/03/08 00:25:31;;;;;;;7.60;5.20;;;0.40;99.90;;;;;;4879649;29;20452;-74
2023/03/08 00:27:59;;;;;;;6.90;5.47;;;0.40;99.90;;;;;;4880761;29;20783;-73
2023/03/08 00:30:30;;;;;;;8.67;5.40;;;0.40;99.90;;;;;;4879546;29;20967;-74
2023/03/08 00:32:58;;;;;;;6.53;4.70;;;0.40;99.90;;;;;;4879392;29;20482;-73
2023/03/08 00:35:26;;;;;;;6.40;4.97;;;0.40;99.90;;;;;;4880611;29;20446;-73
2023/03/08 00:37:54;;;;;;;7.17;5.17;;;0.40;99.90;;;;;;4879303;29;20556;-73
2023/03/08 00:40:23;;;;;;;6.70;5.30;;;0.40;99.90;;;;;;4879350;29;20459;-74
2023/03/08 00:42:52;;;;;;;5.90;4.63;;;0.40;99.90;;;;;;4879485;29;20478;-73
2023/03/08 00:45:20;;;;;;;8.63;4.07;;;0.40;99.90;;;;;;4879809;29;20530;-73
2023/03/08 00:47:48;;;;;;;7.90;4.97;;;0.30;99.90;;;;;;4880737;29;20449;-73
2023/03/08 00:50:16;;;;;;;6.27;5.00;;;0.30;99.90;;;;;;4880455;29;20451;-73
2023/03/08 00:52:44;;;;;;;6.20;5.10;;;0.30;99.90;;;;;;4880448;29;20514;-73
2023/03/08 00:55:13;;;;;;;7.80;5.13;;;0.30;99.90;;;;;;4880352;29;20798;-74
2023/03/08 00:57:43;;;;;;;7.10;4.57;;;0.30;99.90;;;;;;4880165;29;20557;-73
2023/03/08 01:00:12;;;;;;;7.80;5.17;;;0.30;99.90;;;;;;4880306;29;20453;-74
2023/03/08 01:02:41;;;;;;;8.60;5.00;;;0.30;99.90;;;;;;4863771;29;20478;-74
2023/03/08 01:05:09;;;;;;;5.87;4.33;;;0.30;99.90;;;;;;4878897;29;20960;-73
2023/03/08 01:07:38;;;;;;;7.00;4.83;;;0.30;99.90;;;;;;4878879;29;20444;-73
2023/03/08 01:10:08;;;;;;;8.73;4.57;;;0.30;99.90;;;;;;4879077;29;20457;-73
2023/03/08 01:12:38;;;;;;;5.67;4.10;;;0.30;99.90;;;;;;4878750;29;20474;-73
2023/03/08 01:15:08;;;;;;;5.53;3.90;;;0.30;99.90;;;;;;4879067;29;20458;-73
2023/03/08 01:17:36;;;;;;;6.37;3.90;;;0.30;99.90;;;;;;4878958;29;20477;-73
2023/03/08 01:20:06;;;;;;;5.90;4.30;;;0.20;99.90;;;;;;4878706;29;20462;-73
2023/03/08 01:22:34;;;;;;;5.70;4.43;;;0.20;99.90;;;;;;4878565;29;20474;-73
2023/03/08 01:25:02;;;;;;;6.37;4.60;;;0.20;99.90;;;;;;4878877;29;20452;-73
2023/03/08 01:27:30;;;;;;;6.83;4.13;;;0.20;99.90;;;;;;4878678;29;20510;-73
2023/03/08 01:29:58;;;;;;;5.53;4.07;;;0.20;99.90;;;;;;4878551;29;20834;-73
2023/03/08 01:32:28;;;;;;;6.00;4.80;;;0.20;99.90;;;;;;4878568;29;20478;-73
2023/03/08 01:35:00;;;;;;;6.87;4.23;;;0.20;99.90;;;;;;4878465;29;20505;-73
2023/03/08 01:37:29;;;;;;;5.83;4.10;;;0.20;99.90;;;;;;4878366;29;20552;-73
2023/03/08 01:39:57;;;;;;;8.23;4.57;;;0.20;99.90;;;;;;4878373;29;20486;-73
2023/03/08 01:42:25;;;;;;;7.47;4.43;;;0.20;99.90;;;;;;4879753;29;20469;-73
2023/03/08 01:44:55;;;;;;;7.63;4.67;;;0.20;99.90;;;;;;4878585;29;20482;-73
2023/03/08 01:47:25;;;;;;;7.07;4.13;;;0.10;99.90;;;;;;4878260;29;20953;-73
2023/03/08 01:50:20;;;;;;;6.93;5.03;;;0.10;99.90;;;;;;4878275;29;20450;-73
2023/03/08 01:52:53;;;;;;;5.90;4.77;;;0.10;99.90;;;;;;4878167;29;20885;-73
2023/03/08 01:55:21;;;;;;;7.80;5.40;;;0.10;99.90;;;;;;4878406;29;20465;-73
2023/03/08 01:57:54;;;;;;;6.80;5.27;;;0.10;99.90;;;;;;4879312;29;20537;-73
2023/03/08 02:00:24;;;;;;;6.40;5.43;;;0.10;99.90;;;;;;4878210;29;20474;-73
2023/03/08 02:02:54;;;;;;;6.30;5.33;;;0.10;99.90;;;;;;4878390;29;20510;-74
2023/03/08 02:05:26;;;;;;;7.23;6.50;;;0.10;99.90;;;;;;4878435;29;20502;-73
2023/03/08 02:07:59;;;;;;;8.90;7.83;;;0.10;99.90;;;;;;4878132;29;20449;-73
2023/03/08 02:10:32;;;;;;;11.83;7.30;;;0.10;99.90;;;;;;4881626;29;21019;-73
2023/03/08 02:13:01;;;;;;;10.20;7.73;;;0.10;99.90;;;;;;4881847;29;20542;-73
2023/03/08 02:15:29;;;;;;;10.03;8.93;;;0.10;99.90;;;;;;4883081;29;20502;-73
2023/03/08 02:17:58;;;;;;;10.03;9.03;;;0.10;99.90;;;;;;4881805;29;20450;-73
2023/03/08 02:20:30;;;;;;;13.00;10.57;;;0.00;99.90;;;;;;4881764;29;20892;-73
2023/03/08 02:23:09;;;;;;;16.40;12.00;;;0.10;99.90;;;;;;4881872;29;20486;-73
2023/03/08 02:25:38;;;;;;;12.70;11.37;;;0.10;99.90;;;;;;4881733;29;20438;-73
2023/03/08 02:28:09;;;;;;;11.87;9.83;;;0.10;99.90;;;;;;4881812;29;20865;-73
2023/03/08 02:30:38;;;;;;;13.57;10.40;;;0.10;99.90;;;;;;4881851;29;20826;-73
2023/03/08 02:33:06;;;;;;;12.77;10.83;;;0.10;99.90;;;;;;4881509;29;20486;-73
2023/03/08 02:35:41;;;;;;;14.60;11.00;;;0.00;99.90;;;;;;4881769;29;20449;-73
2023/03/08 02:38:16;;;;;;;12.90;11.60;;;0.00;99.90;;;;;;4882630;29;20526;-73
2023/03/08 02:40:45;;;;;;;15.20;13.60;;;0.00;99.90;;;;;;4881431;29;20951;-73
2023/03/08 02:43:13;;;;;;;16.13;14.00;;;0.00;99.90;;;;;;4881441;29;20488;-73
2023/03/08 02:45:41;;;;;;;20.10;16.23;;;0.00;99.90;;;;;;4881284;29;20454;-73
2023/03/08 02:48:09;;;;;;;18.53;16.13;;;0.00;99.90;;;;;;4882731;29;20967;-73
2023/03/08 02:50:37;;;;;;;21.27;17.07;;;0.00;99.90;;;;;;4881176;29;20548;-73
2023/03/08 02:53:06;;;;;;;21.93;17.13;;;0.00;99.90;;;;;;4881178;29;20510;-73
2023/03/08 02:55:36;;;;;;;21.90;16.27;;;0.10;99.90;;;;;;4881158;29;20454;-73
2023/03/08 02:58:10;;;;;;;18.20;15.27;;;0.10;99.90;;;;;;4881347;29;20458;-73
2023/03/08 03:00:38;;;;;;;17.40;14.37;;;0.10;99.90;;;;;;4881008;29;20494;-73
2023/03/08 03:03:06;;;;;;;17.50;14.80;;;0.10;99.90;;;;;;4882170;29;20477;-73
2023/03/08 03:05:35;;;;;;;15.03;13.03;;;0.10;99.90;;;;;;4881145;29;20457;-73
2023/03/08 03:08:06;;;;;;;16.83;14.87;;;0.10;99.90;;;;;;4881204;29;20966;-73
2023/03/08 03:10:36;;;;;;;18.00;13.97;;;0.10;99.90;;;;;;4881157;29;21003;-73
2023/03/08 03:13:04;;;;;;;17.60;14.87;;;0.10;99.90;;;;;;4881606;29;20504;-73
2023/03/08 03:15:33;;;;;;;15.93;14.00;;;0.10;99.90;;;;;;4880816;29;20478;-73
2023/03/08 03:18:01;;;;;;;13.53;11.97;;;0.20;99.90;;;;;;4880787;29;20482;-73
2023/03/08 03:20:29;;;;;;;16.80;14.70;;;0.20;99.90;;;;;;4881635;29;20816;-73
2023/03/08 03:22:58;;;;;;;27.50;14.03;;;0.10;99.90;;;;;;4880577;29;21011;-73
2023/03/08 03:25:38;;;;;;;16.07;14.13;;;0.20;99.90;;;;;;4880657;29;20514;-73
2023/03/08 03:28:10;;;;;;;17.73;14.40;;;0.20;99.90;;;;;;4880529;29;20465;-73
2023/03/08 03:30:40;;;;;;;15.40;12.93;;;0.10;99.90;;;;;;4880755;29;20494;-73
2023/03/08 03:33:10;;;;;;;17.67;15.80;;;0.20;99.90;;;;;;4880497;29;20474;-73
2023/03/08 03:35:39;;;;;;;17.80;15.50;;;0.10;99.90;;;;;;4881722;29;20481;-73
2023/03/08 03:38:09;;;;;;;17.30;14.30;;;0.20;99.90;;;;;;4880616;29;20553;-73
2023/03/08 03:40:39;;;;;;;16.63;14.23;;;0.20;99.90;;;;;;4880580;29;20533;-73
2023/03/08 03:43:07;;;;;;;24.03;17.13;;;0.20;99.90;;;;;;4880283;29;20470;-73
2023/03/08 03:45:36;;;;;;;25.03;21.93;;;0.20;99.90;;;;;;4880394;29;20495;-73
2023/03/08 03:48:04;;;;;;;17.43;14.97;;;0.20;99.90;;;;;;4880295;29;21020;-73
2023/03/08 03:50:33;;;;;;;19.73;17.67;;;0.20;99.90;;;;;;4880262;29;20455;-73
2023/03/08 03:53:06;;;;;;;18.07;15.40;;;0.20;99.90;;;;;;4880145;29;20470;-73
2023/03/08 03:55:35;;;;;;;19.47;16.67;;;0.20;99.90;;;;;;4880279;29;20469;-73
2023/03/08 03:58:05;;;;;;;19.40;16.53;;;0.10;99.90;;;;;;4881338;29;20450;-73
2023/03/08 04:00:33;;;;;;;19.80;17.73;;;0.20;99.90;;;;;;4880045;29;20474;-73
2023/03/08 04:03:12;;;;;;;21.50;19.20;;;0.20;99.90;;;;;;4880404;29;20573;-73
2023/03/08 04:05:42;;;;;;;23.10;18.50;;;0.10;99.90;;;;;;4880004;29;20462;-73
2023/03/08 04:08:11;;;;;;;24.10;19.20;;;0.20;99.90;;;;;;4880077;29;20454;-73
2023/03/08 04:10:41;;;;;;;21.67;18.53;;;0.20;99.90;;;;;;4879940;29;20442;-73
2023/03/08 04:13:12;;;;;;;21.17;18.87;;;0.20;99.90;;;;;;4881530;29;20816;-73
2023/03/08 04:15:41;;;;;;;20.97;18.37;;;0.10;99.90;;;;;;4880131;29;20495;-73
2023/03/08 04:18:12;;;;;;;21.30;18.07;;;0.10;99.90;;;;;;4879781;29;20798;-73
2023/03/08 04:20:44;;;;;;;20.63;18.07;;;0.10;99.90;;;;;;4879763;29;20665;-73
2023/03/08 04:23:14;;;;;;;18.93;16.50;;;0.10;99.90;;;;;;4881101;29;20530;-73
2023/03/08 04:25:46;;;;;;;19.13;16.60;;;0.10;99.90;;;;;;4880262;29;20889;-72
2023/03/08 04:28:17;;;;;;;20.97;18.20;;;0.10;99.90;;;;;;4880353;29;20447;-72
2023/03/08 04:30:45;;;;;;;21.03;18.03;;;0.10;99.90;;;;;;4880038;29;20968;-73
2023/03/08 04:33:16;;;;;;;19.63;16.93;;;0.10;99.90;;;;;;4879260;29;20478;-73
2023/03/08 04:35:48;;;;;;;23.10;18.27;;;0.10;99.90;;;;;;4879494;29;20834;-73
2023/03/08 04:38:18;;;;;;;20.50;16.97;;;0.10;99.90;;;;;;4879356;29;20460;-73
2023/03/08 04:41:04;;;;;;;20.07;16.67;;;0.10;99.90;;;;;;4879402;29;20478;-73
2023/03/08 04:43:45;;;;;;;22.50;17.07;;;0.10;99.90;;;;;;4879569;29;21040;-73
2023/03/08 04:46:15;;;;;;;21.03;17.80;;;0.10;99.90;;;;;;4879415;29;20995;-73
2023/03/08 04:48:44;;;;;;;22.00;18.53;;;0.10;99.90;;;;;;4879263;29;21028;-73
2023/03/08 04:51:16;;;;;;;20.57;18.37;;;0.00;99.90;;;;;;4879420;29;20454;-72
2023/03/08 04:53:46;;;;;;;22.33;17.83;;;0.00;99.90;;;;;;4879284;29;20482;-73
2023/03/08 04:56:16;;;;;;;19.73;17.73;;;0.00;99.90;;;;;;4879023;29;20482;-73
2023/03/08 04:58:46;;;;;;;21.40;18.30;;;0.00;99.90;;;;;;4879064;29;20449;-73
2023/03/08 05:01:18;;;;;;;25.07;19.73;;;0.00;99.90;;;;;;4879737;29;20463;-73
2023/03/08 05:03:49;;;;;;;20.83;18.03;;;0.00;99.90;;;;;;4878948;29;20861;-73
2023/03/08 05:06:19;;;;;;;20.20;17.10;;;0.00;99.90;;;;;;4878966;29;20493;-73
2023/03/08 05:08:48;;;;;;;23.57;21.07;;;0.00;99.90;;;;;;4878830;29;20454;-73
2023/03/08 05:11:19;;;;;;;24.17;19.40;;;0.00;99.90;;;;;;4878785;29;20462;-73
2023/03/08 05:13:49;;;;;;;21.13;18.90;;;0.00;99.90;;;;;;4878649;29;20830;-73
2023/03/08 05:16:17;;;;;;;22.03;19.20;;;0.00;99.90;;;;;;4878745;29;21017;-73
2023/03/08 05:18:45;;;;;;;24.53;20.80;;;0.00;99.90;;;;;;4878562;29;20458;-73
2023/03/08 05:21:17;;;;;;;24.17;20.80;;;0.00;99.90;;;;;;4878984;29;20474;-73
2023/03/08 05:23:48;;;;;;;22.07;19.47;;;0.00;99.90;;;;;;4878669;29;20498;-73
2023/03/08 05:26:19;;;;;;;24.00;20.47;;;-0.10;99.90;;;;;;4879196;29;20490;-73
2023/03/08 05:28:49;;;;;;;25.60;21.63;;;0.00;99.90;;;;;;4878571;29;20454;-73
2023/03/08 05:31:21;;;;;;;24.60;20.03;;;0.00;99.90;;;;;;4878905;29;20792;-73
2023/03/08 05:33:52;;;;;;;24.87;21.50;;;-0.10;99.90;;;;;;4878773;29;21083;-73
2023/03/08 05:36:41;;;;;;;22.63;19.77;;;-0.10;99.90;;;;;;4879481;29;20463;-72
2023/03/08 05:39:10;;;;;;;22.13;19.00;;;-0.10;99.90;;;;;;4879725;29;20470;-72
2023/03/08 05:42:01;;;;;;;24.53;21.57;;;-0.10;99.90;;;;;;4879750;29;20454;-73
2023/03/08 05:44:38;;;;;;;23.77;21.13;;;-0.10;99.90;;;;;;4878449;29;20456;-72
2023/03/08 05:47:08;;;;;;;24.10;21.50;;;-0.10;99.90;;;;;;4878881;29;20461;-72
2023/03/08 05:49:37;;;;;;;22.83;20.43;;;-0.10;99.90;;;;;;4878285;29;20948;-72
2023/03/08 05:52:06;;;;;;;26.77;22.30;;;-0.10;99.90;;;;;;4878666;29;20975;-73
2023/03/08 05:54:35;;;;;;;25.10;22.50;;;-0.10;99.90;;;;;;4878504;29;20462;-73
2023/03/08 05:57:09;;;;;;;26.40;22.80;;;-0.10;99.90;;;;;;4878372;29;20484;-73
2023/03/08 05:59:39;;;;;;;25.73;21.00;;;-0.10;99.90;;;;;;4878448;29;20559;-73
2023/03/08 06:02:09;;;;;;;21.70;17.77;;;0.00;99.90;;;;;;4878200;29;20576;-73
2023/03/08 06:04:43;;;;;;;24.50;21.90;;;-0.10;99.90;;;;;;4878325;29;20983;-73
2023/03/08 06:07:12;;;;;;;26.30;21.07;;;-0.10;99.90;;;;;;4878238;29;20655;-73
2023/03/08 06:09:45;;;;;;;24.67;21.47;;;-0.10;99.90;;;;;;4878417;29;20454;-73
2023/03/08 06:12:16;;;;;;;25.33;22.70;;;-0.10;99.90;;;;;;4878199;29;20447;-73
2023/03/08 06:14:48;;;;;;;26.30;20.77;;;-0.10;99.90;;;;;;4878298;29;20450;-73
2023/03/08 06:17:19;;;;;;;23.93;21.40;;;-0.10;99.90;;;;;;4878187;29;20466;-73
2023/03/08 06:19:49;;;;;;;27.47;23.50;;;-0.10;99.90;;;;;;4878161;29;20477;-73
2023/03/08 06:22:18;;;;;;;26.10;23.30;;;-0.10;99.90;;;;;;4877912;29;20526;-73
2023/03/08 06:24:48;;;;;;;24.23;21.53;;;-0.10;99.90;;;;;;4878160;29;20454;-73
2023/03/08 06:27:22;;;;;;;26.00;22.80;;;-0.10;99.90;;;;;;4877925;29;20465;-73
2023/03/08 06:29:54;;;;;;;26.83;22.53;;;-0.10;99.90;;;;;;4879110;29;20451;-73
2023/03/08 06:32:23;;;;;;;31.10;24.20;;;0.00;99.90;;;;;;4878081;29;20466;-73
2023/03/08 06:34:52;;;;;;;27.10;23.07;;;0.00;99.90;;;;;;4878021;29;20453;-73
2023/03/08 06:37:20;;;;;;;28.53;23.37;;;-0.10;99.90;;;;;;4878133;29;20454;-73
2023/03/08 06:39:48;;;;;;;28.73;22.23;;;-0.10;99.90;;;;;;4877928;29;20454;-73
2023/03/08 06:42:17;;;;;;;25.47;21.77;;;0.00;99.90;;;;;;4877786;29;20899;-73
2023/03/08 06:44:54;;;;;;;24.77;21.03;;;0.00;99.90;;;;;;4877937;29;20454;-72
2023/03/08 06:47:22;;;;;;;26.70;22.30;;;0.00;99.90;;;;;;4878010;29;20459;-72
2023/03/08 06:49:52;;;;;;;24.70;21.20;;;0.00;99.90;;;;;;4877890;29;20446;-72
2023/03/08 06:52:20;;;;;;;24.30;21.73;;;0.00;99.90;;;;;;4878033;29;22826;-72
2023/03/08 06:54:48;;;;;;;24.60;21.70;;;0.10;99.90;;;;;;4878684;29;20871;-72
2023/03/08 06:57:16;;;;;;;27.10;23.00;;;0.10;99.90;;;;;;4881421;29;20455;-73
2023/03/08 06:59:44;;;;;;;27.40;23.60;;;0.10;99.90;;;;;;4881178;29;20454;-73
2023/03/08 07:02:14;;;;;;;27.47;24.43;;;0.10;99.90;;;;;;4882360;29;20509;-73
2023/03/08 07:04:42;;;;;;;30.20;24.63;;;0.10;99.90;;;;;;4881113;29;20461;-72
2023/03/08 07:07:10;;;;;;;28.87;24.20;;;0.10;99.90;;;;;;4881030;29;20483;-73
2023/03/08 07:09:38;;;;;;;30.57;26.53;;;0.20;99.90;;;;;;4881226;29;20489;-73
2023/03/08 07:12:06;;;;;;;27.60;24.70;;;0.20;99.90;;;;;;4882046;29;20442;-73
2023/03/08 07:14:35;;;;;;;30.07;25.90;;;0.30;99.90;;;;;;4880933;29;20486;-73
2023/03/08 07:17:03;;;;;;;31.67;25.57;;;0.30;99.90;;;;;;4882617;29;20446;-73
2023/03/08 07:19:32;;;;;;;28.60;25.50;;;0.30;99.90;;;;;;4880848;29;20534;-73
2023/03/08 07:22:00;;;;;;;29.07;25.17;;;0.30;99.90;;;;;;4882132;29;20531;-72
2023/03/08 07:24:28;;;;;;;25.53;22.40;;;0.40;99.90;;;;;;4880886;29;20528;-72
2023/03/08 07:26:56;;;;;;;29.93;26.70;;;0.50;99.90;;;;;;4882515;29;20454;-72
2023/03/08 07:29:24;;;;;;;29.13;26.03;;;0.50;99.90;;;;;;4880720;29;20447;-72
2023/03/08 07:31:52;;;;;;;30.33;24.47;;;0.50;99.90;;;;;;4881894;29;20447;-73
2023/03/08 07:34:21;;;;;;;27.50;24.50;;;0.50;99.90;;;;;;4881781;29;20991;-72
2023/03/08 07:36:51;;;;;;;28.50;24.27;;;0.60;99.90;;;;;;4880561;29;20456;-72
2023/03/08 07:39:19;;;;;;;26.43;23.00;;;0.60;99.90;;;;;;4880486;29;20830;-72
2023/03/08 07:41:47;;;;;;;29.70;26.10;;;0.60;99.90;;;;;;4881908;29;21006;-72
2023/03/08 07:44:15;;;;;;;27.37;23.83;;;0.70;99.90;;;;;;4881579;29;20827;-73
2023/03/08 07:46:45;;;;;;;27.57;24.53;;;0.70;99.90;;;;;;4881696;29;20441;-73
2023/03/08 07:49:13;;;;;;;26.83;23.90;;;0.80;99.90;;;;;;4882313;29;20439;-73
2023/03/08 07:51:41;;;;;;;26.87;23.80;;;0.80;99.90;;;;;;4881528;29;20522;-73
2023/03/08 07:54:12;;;;;;;29.80;26.03;;;0.80;99.90;;;;;;4880166;29;20493;-73
2023/03/08 07:56:40;;;;;;;26.60;23.73;;;0.80;99.90;;;;;;4881487;29;20437;-73
2023/03/08 07:59:09;;;;;;;26.00;22.90;;;0.90;99.90;;;;;;4881670;29;20498;-73
2023/03/08 08:01:37;;;;;;;28.67;25.50;;;0.90;99.90;;;;;;4880052;29;20478;-73
2023/03/08 08:04:07;;;;;;;27.00;24.20;;;0.90;99.90;;;;;;4879974;29;20961;-73
2023/03/08 08:06:36;;;;;;;27.33;24.03;;;1.00;99.90;;;;;;4879059;29;20443;-73
2023/03/08 08:09:04;;;;;;;29.03;24.60;;;1.00;99.90;;;;;;4880096;29;20455;-73
2023/03/08 08:11:34;;;;;;;26.63;23.20;;;1.10;99.90;;;;;;4881242;29;20443;-73
2023/03/08 08:14:02;;;;;;;25.33;22.43;;;1.10;99.90;;;;;;4881323;29;20455;-73
2023/03/08 08:16:30;;;;;;;27.67;23.40;;;1.10;99.90;;;;;;4881036;29;21017;-73
2023/03/08 08:18:58;;;;;;;27.23;22.70;;;1.20;99.90;;;;;;4881081;29;20853;-73
2023/03/08 08:21:27;;;;;;;26.77;23.90;;;1.20;99.90;;;;;;4880933;29;20489;-73
2023/03/08 08:23:56;;;;;;;26.53;22.63;;;1.20;99.90;;;;;;4880892;29;20832;-73
2023/03/08 08:26:24;;;;;;;28.57;23.70;;;1.20;99.90;;;;;;4879567;29;20468;-73
2023/03/08 08:28:54;;;;;;;28.10;25.20;;;1.30;99.90;;;;;;4880878;29;20443;-73
2023/03/08 08:31:25;;;;;;;27.20;24.30;;;1.30;99.90;;;;;;4881134;29;20443;-73
2023/03/08 08:33:54;;;;;;;26.60;23.80;;;1.40;99.90;;;;;;4881044;29;20491;-73
2023/03/08 08:36:22;;;;;;;26.60;23.40;;;1.40;99.90;;;;;;4879504;29;20978;-73
2023/03/08 08:38:50;;;;;;;26.10;23.30;;;1.50;99.90;;;;;;4880631;29;20444;-73
2023/03/08 08:41:20;;;;;;;25.40;22.70;;;1.50;99.90;;;;;;4879394;29;20459;-73
2023/03/08 08:43:49;;;;;;;24.67;21.97;;;1.60;99.90;;;;;;4879465;29;20472;-73
2023/03/08 08:46:19;;;;;;;23.83;21.20;;;1.60;99.90;;;;;;4880527;29;20456;-73
2023/03/08 08:48:47;;;;;;;24.83;20.47;;;1.70;99.90;;;;;;4879471;29;20467;-73
2023/03/08 08:51:15;;;;;;;24.50;21.90;;;1.70;99.90;;;;;;4879262;29;20520;-73
2023/03/08 08:53:43;;;;;;;25.27;21.07;;;1.70;99.90;;;;;;4880360;29;20502;-73
2023/03/08 08:56:13;;;;;;;24.67;22.07;;;1.80;99.90;;;;;;4880520;29;20500;-73
2023/03/08 08:58:55;;;;;;;22.97;20.37;;;1.90;99.90;;;;;;4879149;29;20505;-73
2023/03/08 09:01:27;;;;;;;22.13;19.43;;;1.90;99.90;;;;;;4880262;29;20814;-73
2023/03/08 09:03:55;;;;;;;22.90;20.50;;;2.00;99.90;;;;;;4880534;29;20456;-73
2023/03/08 09:06:24;;;;;;;25.27;22.50;;;2.00;99.90;;;;;;4880220;29;20961;-73
2023/03/08 09:08:54;;;;;;;23.90;20.60;;;2.10;99.90;;;;;;4880187;29;20528;-73
2023/03/08 09:11:24;;;;;;;27.17;22.40;;;2.20;99.90;;;;;;4880113;29;20447;-73
2023/03/08 09:13:53;;;;;;;25.47;22.37;;;2.20;99.90;;;;;;4880546;29;20463;-73
2023/03/08 09:16:24;;;;;;;25.50;22.80;;;2.30;99.90;;;;;;4880046;29;20445;-73
2023/03/08 09:18:55;;;;;;;26.83;22.33;;;2.30;99.90;;;;;;4878622;29;20501;-73
2023/03/08 09:21:23;;;;;;;26.77;22.60;;;2.40;99.90;;;;;;4879059;29;20454;-73
2023/03/08 09:23:52;;;;;;;28.50;23.80;;;2.50;99.90;;;;;;4878598;29;20504;-73
2023/03/08 09:26:20;;;;;;;24.40;21.40;;;2.60;99.90;;;;;;4878711;29;20466;-73
2023/03/08 09:28:48;;;;;;;27.83;23.07;;;2.60;99.90;;;;;;4878602;29;20462;-73
2023/03/08 09:31:18;;;;;;;27.23;23.77;;;2.70;99.90;;;;;;4878610;29;20450;-73
2023/03/08 09:33:50;;;;;;;28.90;23.20;;;2.70;99.90;;;;;;4879775;29;20564;-73
2023/03/08 09:36:19;;;;;;;24.27;20.30;;;2.80;99.90;;;;;;4880306;29;20987;-73
2023/03/08 09:38:49;;;;;;;25.37;21.60;;;2.80;99.90;;;;;;4879768;29;20460;-73
2023/03/08 09:41:32;;;;;;;22.90;19.40;;;2.90;99.90;;;;;;4879759;29;20933;-73
2023/03/08 09:44:12;;;;;;;24.50;18.80;;;2.90;99.90;;;;;;4878356;29;20489;-73
2023/03/08 09:46:45;;;;;;;24.60;19.30;;;2.90;99.90;;;;;;4880014;29;20426;-73
2023/03/08 09:49:20;;;;;;;23.03;20.63;;;3.00;99.90;;;;;;4879691;29;20517;-73
2023/03/08 09:51:52;;;;;;;20.97;18.00;;;3.00;99.90;;;;;;4878400;29;21006;-73
2023/03/08 09:54:24;;;;;;;21.93;19.53;;;3.00;99.90;;;;;;4879905;29;20828;-73
2023/03/08 09:56:55;;;;;;;20.90;18.57;;;3.10;99.90;;;;;;4878385;29;20802;-73
2023/03/08 09:59:27;;;;;;;22.60;18.07;;;3.20;99.90;;;;;;4878377;29;20458;-73
2023/03/08 10:02:04;;;;;;;24.20;19.70;;;3.30;99.90;;;;;;4878297;29;20928;-73
2023/03/08 10:04:45;;;;;;;22.57;18.47;;;3.30;99.90;;;;;;4879860;29;20488;-73
2023/03/08 10:07:26;;;;;;;20.87;18.77;;;3.40;99.90;;;;;;4878974;29;20468;-73
2023/03/08 10:10:12;;;;;;;21.43;18.37;;;3.40;99.90;;;;;;4878483;29;20549;-73
2023/03/08 10:12:56;;;;;;;19.47;17.50;;;3.50;99.90;;;;;;4878192;29;20474;-73
2023/03/08 10:15:26;;;;;;;20.37;17.20;;;3.60;99.90;;;;;;4878231;29;20504;-73
2023/03/08 10:18:00;;;;;;;22.10;18.20;;;3.60;99.90;;;;;;4879645;29;20449;-73
2023/03/08 10:20:32;;;;;;;21.60;16.03;;;3.60;99.90;;;;;;4880065;29;20426;-73
2023/03/08 10:23:02;;;;;;;19.03;16.20;;;3.70;99.90;;;;;;4878068;29;20846;-73
2023/03/08 10:25:33;;;;;;;18.07;15.93;;;3.70;99.90;;;;;;4879005;29;20452;-73
2023/03/08 10:28:03;;;;;;;18.83;16.03;;;3.80;99.90;;;;;;4879773;29;20458;-73
2023/03/08 10:30:34;;;;;;;20.63;17.00;;;3.80;99.90;;;;;;4881107;29;20485;-72
2023/03/08 10:33:08;;;;;;;18.60;16.40;;;3.90;99.90;;;;;;4883121;29;20497;-73
2023/03/08 10:35:49;;;;;;;17.43;15.57;;;3.90;99.90;;;;;;4882896;29;20525;-73
2023/03/08 10:38:18;;;;;;;18.00;16.10;;;3.90;99.90;;;;;;4882931;29;20469;-73
2023/03/08 10:40:46;;;;;;;19.10;16.77;;;3.80;99.90;;;;;;4883045;29;20441;-73
2023/03/08 10:43:23;;;;;;;18.63;16.67;;;3.90;99.90;;;;;;4881406;29;20478;-73
2023/03/08 10:45:59;;;;;;;17.67;15.80;;;3.90;99.90;;;;;;4882732;29;20433;-73
2023/03/08 10:48:27;;;;;;;18.43;16.60;;;3.90;99.90;;;;;;4881584;29;20457;-73
2023/03/08 10:51:01;;;;;;;17.57;15.77;;;3.90;99.90;;;;;;4882619;29;20855;-73
2023/03/08 10:53:30;;;;;;;16.37;14.17;;;4.00;99.90;;;;;;4882630;29;20914;-73
2023/03/08 10:56:00;;;;;;;16.27;14.23;;;4.00;99.90;;;;;;4882524;29;20537;-73
2023/03/08 10:58:32;;;;;;;17.43;15.67;;;4.10;99.90;;;;;;4882715;29;20434;-73
2023/03/08 11:01:02;;;;;;;18.43;16.30;;;4.10;99.90;;;;;;4882689;29;20426;-73
2023/03/08 11:03:31;;;;;;;17.27;15.43;;;4.10;99.90;;;;;;4882351;29;20533;-73
2023/03/08 11:06:03;;;;;;;17.03;15.20;;;4.10;99.90;;;;;;4882581;29;20442;-73
2023/03/08 11:08:33;;;;;;;19.10;16.90;;;4.20;99.90;;;;;;4882862;29;20430;-73
2023/03/08 11:11:08;;;;;;;21.70;17.33;;;4.20;99.90;;;;;;4882406;29;20430;-73
2023/03/08 11:13:38;;;;;;;16.93;15.20;;;4.30;99.90;;;;;;4881206;29;21011;-73
2023/03/08 11:16:24;;;;;;;15.90;14.20;;;4.30;99.90;;;;;;4882188;29;20470;-73
2023/03/08 11:19:01;;;;;;;17.20;13.77;;;4.30;99.90;;;;;;4880988;29;20873;-73
2023/03/08 11:21:39;;;;;;;16.70;13.97;;;4.30;99.90;;;;;;4881135;29;20434;-73
2023/03/08 11:24:25;;;;;;;15.83;13.50;;;4.40;99.90;;;;;;4881985;29;20477;-73
2023/03/08 11:27:13;;;;;;;17.90;15.43;;;4.40;99.90;;;;;;4880833;29;20513;-73
2023/03/08 11:29:53;;;;;;;15.27;11.00;;;4.30;99.90;;;;;;4882268;29;20434;-73
2023/03/08 11:32:39;;;;;;;15.53;13.93;;;4.40;99.90;;;;;;4882132;29;20986;-73
2023/03/08 11:35:23;;;;;;;14.83;13.23;;;4.40;99.90;;;;;;4882200;29;20881;-73
2023/03/08 11:37:59;;;;;;;15.60;13.37;;;4.40;99.90;;;;;;4882177;29;20434;-73
2023/03/08 11:40:31;;;;;;;16.00;13.53;;;4.50;99.90;;;;;;4881696;29;20904;-73
2023/03/08 11:43:15;;;;;;;15.37;13.30;;;4.50;99.90;;;;;;4881811;29;20465;-73
2023/03/08 11:45:50;;;;;;;13.87;12.33;;;4.50;99.90;;;;;;4881949;29;20823;-73
2023/03/08 11:48:34;;;;;;;11.60;10.40;;;4.50;99.90;;;;;;4880446;29;20462;-73
2023/03/08 11:51:08;;;;;;;13.37;11.93;;;4.60;99.90;;;;;;4881577;29;20956;-73
2023/03/08 11:53:51;;;;;;;14.60;12.90;;;4.60;99.90;;;;;;4881598;29;20502;-73
2023/03/08 11:56:40;;;;;;;14.70;13.20;;;4.70;99.90;;;;;;4880281;29;20574;-73
2023/03/08 11:59:16;;;;;;;18.50;16.50;;;4.70;99.90;;;;;;4881429;29;20445;-73
2023/03/08 12:01:50;;;;;;;15.53;13.47;;;4.70;99.90;;;;;;4881945;29;20433;-73
2023/03/08 12:04:20;;;;;;;13.90;12.40;;;4.70;99.90;;;;;;4881405;29;20474;-73
2023/03/08 12:06:49;;;;;;;15.03;13.43;;;4.80;99.90;;;;;;4881395;29;20430;-73
2023/03/08 12:09:25;;;;;;;17.73;15.87;;;4.80;99.90;;;;;;4881512;29;20478;-73
2023/03/08 12:11:59;;;;;;;17.33;15.40;;;4.80;99.90;;;;;;4882078;29;20836;-73
2023/03/08 12:14:32;;;;;;;16.07;13.27;;;4.80;99.90;;;;;;4881472;29;20841;-73
2023/03/08 12:17:07;;;;;;;16.00;12.17;;;4.80;99.90;;;;;;4881103;29;20430;-73
2023/03/08 12:19:42;;;;;;;14.40;12.90;;;4.80;99.90;;;;;;4879921;29;20816;-73
2023/03/08 12:22:29;;;;;;;12.80;11.37;;;4.80;99.90;;;;;;4879742;29;20441;-73
2023/03/08 12:25:08;;;;;;;11.97;10.63;;;4.80;99.90;;;;;;4881439;29;20505;-73
2023/03/08 12:27:41;;;;;;;16.67;12.27;;;4.90;99.90;;;;;;4880801;29;20469;-73
2023/03/08 12:30:19;;;;;;;14.40;11.90;;;4.80;99.90;;;;;;4881211;29;20433;-73
2023/03/08 12:32:48;;;;;;;12.07;9.97;;;4.80;99.90;;;;;;4881081;29;20462;-73
2023/03/08 12:35:29;;;;;;;11.93;10.73;;;4.80;99.90;;;;;;4879772;29;20809;-73
2023/03/08 12:37:59;;;;;;;15.20;10.33;;;4.80;99.90;;;;;;4879520;29;20967;-73
2023/03/08 12:40:42;;;;;;;12.43;10.00;;;4.90;99.90;;;;;;4879527;29;20442;-73
2023/03/08 12:43:13;;;;;;;11.50;10.30;;;4.90;99.90;;;;;;4879485;29;20478;-74
2023/03/08 12:45:44;;;;;;;12.33;11.00;;;4.90;99.90;;;;;;4879387;29;20455;-74
2023/03/08 12:48:31;;;;;;;14.10;11.67;;;5.00;99.90;;;;;;4879311;29;20884;-74
2023/03/08 12:51:04;;;;;;;11.90;9.50;;;5.00;99.90;;;;;;4879286;29;20450;-74
2023/03/08 12:53:37;;;;;;;13.87;10.90;;;5.00;99.90;;;;;;4880079;29;20462;-74
2023/03/08 12:56:22;;;;;;;11.27;8.60;;;5.10;99.90;;;;;;4880465;29;20430;-74
2023/03/08 12:58:53;;;;;;;12.70;9.27;;;5.10;99.90;;;;;;4879171;29;21028;-74
2023/03/08 13:01:38;;;;;;;10.93;8.00;;;5.10;99.90;;;;;;4880608;29;21003;-74